Time;durP1;ratioP1;P1;durP2;ratioP2;P2;SDS_P1;SDS_P2;PMS_P1;PMS_P2;Temp;Humidity;BMP_temperature;BMP_pressure;BME280_temperature;BME280_humidity;BME280_pressure;Samples;Min_cycle;Max_cycle;Signal;HPM_P1;HPM_P2
2023/07/21 00:00:45;;;;;;;3.25;2.95;;;;;;;-141.20;100.00;60650.00;5054688;28;20704;-72
2023/07/21 00:03:11;;;;;;;3.85;3.10;;;;;;;-141.20;100.00;60650.00;5081566;28;20059;-72
2023/07/21 00:05:37;;;;;;;4.25;2.90;;;;;;;-141.20;100.00;60650.00;5077593;28;20458;-73
2023/07/21 00:08:03;;;;;;;5.18;3.05;;;;;;;-141.20;100.00;60650.00;5081207;28;20029;-72
2023/07/21 00:10:29;;;;;;;3.30;3.00;;;;;;;-141.20;100.00;60650.00;5085684;28;20119;-73
2023/07/21 00:12:54;;;;;;;4.90;3.25;;;;;;;-141.20;100.00;60650.00;5082263;28;20111;-73
2023/07/21 00:15:20;;;;;;;2.95;2.65;;;;;;;-141.20;100.00;60650.00;5074632;28;20033;-72
2023/07/21 00:17:49;;;;;;;3.33;3.03;;;;;;;-141.20;100.00;60650.00;5060956;28;20107;-73
2023/07/21 00:20:21;;;;;;;7.38;3.17;;;;;;;-141.20;100.00;60650.00;5074385;28;20040;-72
2023/07/21 00:22:47;;;;;;;3.42;3.10;;;;;;;-141.20;100.00;60650.00;5080090;28;20036;-75
2023/07/21 00:25:13;;;;;;;3.10;2.80;;;;;;;-141.20;100.00;60650.00;5070856;28;20035;-73
2023/07/21 00:27:39;;;;;;;3.28;2.97;;;;;;;-141.20;100.00;60650.00;5082737;28;20067;-73
2023/07/21 00:30:08;;;;;;;3.72;2.78;;;;;;;-141.20;100.00;60650.00;5070465;28;20059;-73
2023/07/21 00:32:37;;;;;;;3.88;2.90;;;;;;;-141.20;100.00;60650.00;5074606;28;20036;-72
2023/07/21 00:35:10;;;;;;;3.42;2.83;;;;;;;-141.20;100.00;60650.00;5060745;28;20028;-73
2023/07/21 00:37:36;;;;;;;3.70;2.97;;;;;;;-141.20;100.00;60650.00;5078514;28;20090;-73
2023/07/21 00:40:09;;;;;;;3.58;2.75;;;;;;;-141.20;100.00;60650.00;5085346;28;20074;-74
2023/07/21 00:42:36;;;;;;;4.68;2.97;;;;;;;-141.20;100.00;60650.00;5067845;28;20110;-73
2023/07/21 00:45:03;;;;;;;2.90;2.70;;;;;;;-141.20;100.00;60650.00;5077359;28;20031;-73
2023/07/21 00:47:29;;;;;;;3.15;2.85;;;;;;;-141.20;100.00;60650.00;5054010;28;20116;-73
2023/07/21 00:49:56;;;;;;;4.10;2.97;;;;;;;-141.20;100.00;60650.00;5083359;28;20107;-73
2023/07/21 00:52:23;;;;;;;3.13;2.80;;;;;;;-141.20;100.00;60650.00;5065009;28;20028;-71
2023/07/21 00:54:48;;;;;;;4.28;3.03;;;;;;;-141.20;100.00;60650.00;5082822;28;20038;-71
2023/07/21 00:57:15;;;;;;;3.83;2.85;;;;;;;-141.20;100.00;60650.00;5064720;28;20111;-71
2023/07/21 00:59:40;;;;;;;3.60;2.80;;;;;;;-141.20;100.00;60650.00;5065976;28;20024;-71
2023/07/21 01:02:05;;;;;;;3.17;2.70;;;;;;;-141.20;100.00;60650.00;5066942;28;20036;-73
2023/07/21 01:04:31;;;;;;;4.03;2.92;;;;;;;-141.20;100.00;60650.00;5069987;28;20387;-73
2023/07/21 01:06:58;;;;;;;5.32;3.13;;;;;;;-141.20;100.00;60650.00;5064466;28;20037;-73
2023/07/21 01:09:25;;;;;;;2.85;2.58;;;;;;;-141.20;100.00;60650.00;5083414;28;20025;-73
2023/07/21 01:11:53;;;;;;;2.70;2.50;;;;;;;-141.20;100.00;60650.00;5066991;28;20028;-74
2023/07/21 01:14:19;;;;;;;3.15;2.63;;;;;;;-141.20;100.00;60650.00;5044122;28;20024;-75
2023/07/21 01:16:45;;;;;;;3.10;2.80;;;;;;;-141.20;100.00;60650.00;5076658;28;20051;-73
2023/07/21 01:19:14;;;;;;;3.45;2.92;;;;;;;-141.20;100.00;60650.00;5069974;28;20032;-73
2023/07/21 01:22:10;;;;;;;3.40;3.10;;;;;;;-141.20;100.00;60650.00;5065077;28;20039;-73
2023/07/21 01:24:39;;;;;;;3.75;2.95;;;;;;;-141.20;100.00;60650.00;5056081;28;20044;-74
2023/07/21 01:27:05;;;;;;;4.47;3.00;;;;;;;-141.20;100.00;60650.00;5069610;28;20343;-73
2023/07/21 01:29:35;;;;;;;3.05;2.60;;;;;;;-141.20;100.00;60650.00;5079546;28;20100;-73
2023/07/21 01:32:04;;;;;;;2.58;2.38;;;;;;;-141.20;100.00;60650.00;5053120;28;20025;-74
2023/07/21 01:34:31;;;;;;;3.08;2.40;;;;;;;-141.20;100.00;60650.00;5053433;28;20032;-73
2023/07/21 01:36:56;;;;;;;3.67;2.58;;;;;;;-141.20;100.00;60650.00;5069820;28;20095;-73
2023/07/21 01:39:22;;;;;;;4.80;2.80;;;;;;;-141.20;100.00;60650.00;5063864;28;20475;-73
2023/07/21 01:41:47;;;;;;;3.55;2.65;;;;;;;-141.20;100.00;60650.00;5065940;28;20093;-73
2023/07/21 01:44:13;;;;;;;2.80;2.50;;;;;;;-141.20;100.00;60650.00;5066290;28;20039;-73
2023/07/21 01:46:38;;;;;;;5.38;2.88;;;;;;;-141.20;100.00;60650.00;5056412;28;20052;-74
2023/07/21 01:49:03;;;;;;;3.33;2.80;;;;;;;-141.20;100.00;60650.00;5062875;28;20512;-73
2023/07/21 01:51:29;;;;;;;3.35;2.42;;;;;;;-141.20;100.00;60650.00;5083432;28;20027;-73
2023/07/21 01:53:58;;;;;;;2.92;2.53;;;;;;;-141.20;100.00;60650.00;5065794;28;20035;-73
2023/07/21 01:56:30;;;;;;;3.30;2.50;;;;;;;-141.20;100.00;60650.00;5056629;28;20509;-73
2023/07/21 01:58:59;;;;;;;3.00;2.70;;;;;;;-141.20;100.00;60650.00;5072028;28;20039;-73
2023/07/21 02:01:25;;;;;;;3.88;2.42;;;;;;;-141.20;100.00;60650.00;5077889;28;20020;-74
2023/07/21 02:03:51;;;;;;;2.80;2.50;;;;;;;-141.20;100.00;60650.00;5070631;28;20036;-73
2023/07/21 02:06:16;;;;;;;4.18;2.55;;;;;;;-141.20;100.00;60650.00;5065007;28;20032;-74
2023/07/21 02:08:42;;;;;;;3.03;2.40;;;;;;;-141.20;100.00;60650.00;5084204;28;20051;-73
2023/07/21 02:11:08;;;;;;;4.05;2.60;;;;;;;-141.20;100.00;60650.00;5060895;28;20027;-73
2023/07/21 02:13:52;;;;;;;2.67;2.40;;;;;;;-141.20;100.00;60650.00;5085809;28;20056;-74
2023/07/21 02:16:19;;;;;;;2.72;2.53;;;;;;;-141.20;100.00;60650.00;5043876;28;20105;-73
2023/07/21 02:18:45;;;;;;;2.50;2.30;;;;;;;-141.20;100.00;60650.00;5086888;28;20473;-73
2023/07/21 02:21:10;;;;;;;4.22;2.90;;;;;;;-141.20;100.00;60650.00;5069361;28;22012;-73
2023/07/21 02:23:36;;;;;;;2.80;2.50;;;;;;;-141.20;100.00;60650.00;5052370;28;20028;-73
2023/07/21 02:26:01;;;;;;;4.53;2.67;;;;;;;-141.20;100.00;60650.00;5060093;28;20394;-73
2023/07/21 02:28:27;;;;;;;3.10;2.70;;;;;;;-141.20;100.00;60650.00;5068457;28;20463;-72
2023/07/21 02:31:03;;;;;;;3.67;2.88;;;;;;;-141.20;100.00;60650.00;5076622;28;20035;-71
2023/07/21 02:33:33;;;;;;;4.15;2.53;;;;;;;-141.20;100.00;60650.00;5075381;28;20163;-71
2023/07/21 02:35:59;;;;;;;3.00;2.70;;;;;;;-141.20;100.00;60650.00;5089210;28;20050;-71
2023/07/21 02:38:25;;;;;;;3.42;2.67;;;;;;;-141.20;100.00;60650.00;5089377;28;20162;-71
2023/07/21 02:40:51;;;;;;;3.45;2.70;;;;;;;-141.20;100.00;60650.00;5093010;28;20131;-71
2023/07/21 02:43:18;;;;;;;2.80;2.45;;;;;;;-141.20;100.00;60650.00;5079242;28;20028;-74
2023/07/21 02:45:50;;;;;;;3.30;2.47;;;;;;;-141.20;100.00;60650.00;5072674;28;20039;-73
2023/07/21 02:48:18;;;;;;;3.22;2.60;;;;;;;-141.20;100.00;60650.00;5062864;28;20046;-73
2023/07/21 02:50:57;;;;;;;3.72;2.80;;;;;;;-141.20;100.00;60650.00;5072911;28;20383;-73
2023/07/21 02:53:22;;;;;;;5.32;2.90;;;;;;;-141.20;100.00;60650.00;5055838;28;20127;-74
2023/07/21 02:55:56;;;;;;;3.80;2.58;;;;;;;-141.20;100.00;60650.00;5053366;28;20021;-73
2023/07/21 02:58:26;;;;;;;3.05;2.67;;;;;;;-141.20;100.00;60650.00;5055774;28;20101;-72
2023/07/21 03:00:54;;;;;;;3.05;2.75;;;;;;;-141.20;100.00;60650.00;5053100;28;20036;-72
2023/07/21 03:03:25;;;;;;;2.60;2.38;;;;;;;-141.20;100.00;60650.00;5066932;28;20481;-72
2023/07/21 03:05:54;;;;;;;2.90;2.60;;;;;;;-141.20;100.00;60650.00;5072049;28;20025;-72
2023/07/21 03:08:26;;;;;;;3.25;2.80;;;;;;;-141.20;100.00;60650.00;5083514;28;20028;-72
2023/07/21 03:10:57;;;;;;;5.15;3.00;;;;;;;-141.20;100.00;60650.00;5071540;28;20028;-72
2023/07/21 03:13:25;;;;;;;2.97;2.67;;;;;;;-141.20;100.00;60650.00;5068784;28;20028;-73
2023/07/21 03:15:51;;;;;;;2.90;2.63;;;;;;;-141.20;100.00;60650.00;5078966;28;20367;-73
2023/07/21 03:18:23;;;;;;;3.75;2.63;;;;;;;-141.20;100.00;60650.00;5073165;28;20127;-73
2023/07/21 03:21:05;;;;;;;2.80;2.60;;;;;;;-141.20;100.00;60650.00;5074398;28;20032;-74
2023/07/21 03:23:30;;;;;;;3.53;2.95;;;;;;;-141.20;100.00;60650.00;5067189;28;20421;-74
2023/07/21 03:25:56;;;;;;;3.03;2.47;;;;;;;-141.20;100.00;60650.00;5049159;28;20474;-74
2023/07/21 03:28:25;;;;;;;3.10;2.60;;;;;;;-141.20;100.00;60650.00;5071561;28;20033;-74
2023/07/21 03:30:58;;;;;;;2.80;2.60;;;;;;;-141.20;100.00;60650.00;5066454;28;20446;-74
2023/07/21 03:33:24;;;;;;;3.65;2.80;;;;;;;-141.20;100.00;60650.00;5070031;28;20525;-74
2023/07/21 03:36:04;;;;;;;3.50;3.03;;;;;;;-141.20;100.00;60650.00;5085439;28;20080;-74
2023/07/21 03:38:35;;;;;;;3.60;2.80;;;;;;;-141.20;100.00;60650.00;5058711;28;20025;-74
2023/07/21 03:41:05;;;;;;;3.05;2.75;;;;;;;-141.20;100.00;60650.00;5072295;28;20040;-73
2023/07/21 03:43:33;;;;;;;2.83;2.50;;;;;;;-141.20;100.00;60650.00;5071653;28;20036;-73
2023/07/21 03:45:59;;;;;;;4.03;2.75;;;;;;;-141.20;100.00;60650.00;5073300;28;20027;-72
2023/07/21 03:48:29;;;;;;;4.30;2.72;;;;;;;-141.20;100.00;60650.00;5066452;28;20399;-72
2023/07/21 03:51:01;;;;;;;4.38;3.08;;;;;;;-141.20;100.00;60650.00;5085869;28;20028;-74
2023/07/21 03:53:29;;;;;;;5.93;3.42;;;;;;;-141.20;100.00;60650.00;5071428;28;20032;-73
2023/07/21 03:55:55;;;;;;;3.83;3.38;;;;;;;-141.20;100.00;60650.00;5074528;28;20020;-73
2023/07/21 03:58:21;;;;;;;4.70;2.80;;;;;;;-141.20;100.00;60650.00;5071175;28;20033;-73
2023/07/21 04:00:46;;;;;;;2.92;2.53;;;;;;;-141.20;100.00;60650.00;5085001;28;20029;-73
2023/07/21 04:03:12;;;;;;;5.28;3.38;;;;;;;-141.20;100.00;60650.00;5063879;28;20046;-73
2023/07/21 04:05:38;;;;;;;5.70;3.15;;;;;;;-141.20;100.00;60650.00;5077900;28;20406;-74
2023/07/21 04:08:04;;;;;;;3.40;2.70;;;;;;;-141.20;100.00;60650.00;5071377;28;20665;-72
2023/07/21 04:10:30;;;;;;;3.45;2.88;;;;;;;-141.20;100.00;60650.00;5074042;28;20034;-73
2023/07/21 04:12:57;;;;;;;4.05;2.90;;;;;;;-141.20;100.00;60650.00;5071036;28;20081;-72
2023/07/21 04:15:26;;;;;;;4.38;3.20;;;;;;;-141.20;100.00;60650.00;5051230;28;20040;-73
2023/07/21 04:17:52;;;;;;;3.85;3.40;;;;;;;-141.20;100.00;60650.00;5080810;28;20035;-74
2023/07/21 04:20:17;;;;;;;3.65;3.15;;;;;;;-141.20;100.00;60650.00;5074500;28;20028;-73
2023/07/21 04:22:43;;;;;;;5.20;4.30;;;;;;;-141.20;100.00;60650.00;5080112;28;20450;-73
2023/07/21 04:25:08;;;;;;;4.05;2.75;;;;;;;-141.20;100.00;60650.00;5070422;28;20544;-72
2023/07/21 04:27:36;;;;;;;4.05;3.05;;;;;;;-141.20;100.00;60650.00;5047948;28;20028;-72
2023/07/21 04:30:02;;;;;;;3.63;3.22;;;;;;;-141.20;100.00;60650.00;5078781;28;20024;-72
2023/07/21 04:32:30;;;;;;;3.40;3.10;;;;;;;-141.20;100.00;60650.00;5070724;28;20031;-73
2023/07/21 04:34:59;;;;;;;4.28;3.08;;;;;;;-141.20;100.00;60650.00;5085320;28;20043;-72
2023/07/21 04:37:25;;;;;;;3.10;2.80;;;;;;;-141.20;100.00;60650.00;5081880;28;20040;-74
2023/07/21 04:39:53;;;;;;;3.92;2.90;;;;;;;-141.20;100.00;60650.00;5060852;28;20027;-73
2023/07/21 04:42:19;;;;;;;4.35;3.25;;;;;;;-141.20;100.00;60650.00;5070209;28;20037;-73
2023/07/21 04:44:44;;;;;;;4.07;3.15;;;;;;;-141.20;100.00;60650.00;5070000;28;20027;-73
2023/07/21 04:47:10;;;;;;;3.22;2.95;;;;;;;-141.20;100.00;60650.00;5065169;28;20724;-74
2023/07/21 04:49:42;;;;;;;2.92;2.60;;;;;;;-141.20;100.00;60650.00;5077000;28;20034;-73
2023/07/21 04:52:08;;;;;;;3.30;3.00;;;;;;;-141.20;100.00;60650.00;5070763;28;20028;-74
2023/07/21 04:54:34;;;;;;;5.65;3.00;;;;;;;-141.20;100.00;60650.00;5069918;28;20016;-74
2023/07/21 04:56:59;;;;;;;3.58;3.25;;;;;;;-141.20;100.00;60650.00;5090561;28;20028;-74
2023/07/21 04:59:26;;;;;;;4.15;2.90;;;;;;;-141.20;100.00;60650.00;5073208;28;20029;-73
2023/07/21 05:01:52;;;;;;;3.55;3.10;;;;;;;-141.20;100.00;60650.00;5077873;28;20466;-74
2023/07/21 05:04:19;;;;;;;3.70;3.00;;;;;;;-141.20;100.00;60650.00;5055112;28;20115;-75
2023/07/21 05:06:48;;;;;;;3.75;3.33;;;;;;;-141.20;100.00;60650.00;5070568;28;20074;-73
2023/07/21 05:09:14;;;;;;;4.22;2.97;;;;;;;-141.20;100.00;60650.00;5083506;28;20482;-74
2023/07/21 05:11:40;;;;;;;4.10;3.08;;;;;;;-141.20;100.00;60650.00;5066085;28;20031;-75
2023/07/21 05:14:06;;;;;;;4.47;2.95;;;;;;;-141.20;100.00;60650.00;5054069;28;20075;-77
2023/07/21 05:16:57;;;;;;;3.85;3.00;;;;;;;-141.20;100.00;60650.00;5069150;28;20087;-75
2023/07/21 05:19:44;;;;;;;5.10;2.85;;;;;;;-141.20;100.00;60650.00;5054508;28;20036;-75
2023/07/21 05:22:30;;;;;;;4.38;3.13;;;;;;;-141.20;100.00;60650.00;5079301;28;20032;-75
2023/07/21 05:25:05;;;;;;;3.83;2.80;;;;;;;-141.20;100.00;60650.00;5075455;28;20045;-75
2023/07/21 05:27:31;;;;;;;3.95;3.10;;;;;;;-141.20;100.00;60650.00;5047064;28;20032;-74
2023/07/21 05:30:00;;;;;;;3.17;2.88;;;;;;;-141.20;100.00;60650.00;5073300;28;20028;-75
2023/07/21 05:32:29;;;;;;;4.32;2.55;;;;;;;-141.20;100.00;60650.00;5078808;28;20497;-77
2023/07/21 05:35:09;;;;;;;3.95;2.63;;;;;;;-141.20;100.00;60650.00;5083336;28;20027;-75
2023/07/21 05:37:36;;;;;;;3.22;2.92;;;;;;;-141.20;100.00;60650.00;5063949;28;20102;-73
2023/07/21 05:40:02;;;;;;;4.38;2.85;;;;;;;-141.20;100.00;60650.00;5066239;28;20028;-73
2023/07/21 05:42:27;;;;;;;5.80;3.00;;;;;;;-141.20;100.00;60650.00;5053042;28;20090;-74
2023/07/21 05:44:56;;;;;;;4.30;3.20;;;;;;;-141.20;100.00;60650.00;5076042;28;20036;-76
2023/07/21 05:47:22;;;;;;;2.85;2.60;;;;;;;-141.20;100.00;60650.00;5069687;28;20032;-75
2023/07/21 05:49:50;;;;;;;4.25;2.90;;;;;;;-141.20;100.00;60650.00;5066607;28;20030;-75
2023/07/21 05:52:17;;;;;;;3.35;3.05;;;;;;;-141.20;100.00;60650.00;5046469;28;20036;-74
2023/07/21 05:54:44;;;;;;;4.47;2.53;;;;;;;-141.20;100.00;60650.00;5069514;28;20048;-74
2023/07/21 05:57:12;;;;;;;3.97;2.72;;;;;;;-141.20;100.00;60650.00;5082812;28;20032;-74
2023/07/21 05:59:45;;;;;;;4.75;2.88;;;;;;;-141.20;100.00;60650.00;5059941;28;20558;-74
2023/07/21 06:02:13;;;;;;;3.00;2.70;;;;;;;-141.20;100.00;60650.00;5070790;28;20484;-74
2023/07/21 06:04:42;;;;;;;3.88;2.80;;;;;;;-141.20;100.00;60650.00;5081572;28;20034;-74
2023/07/21 06:07:28;;;;;;;4.32;2.85;;;;;;;-141.20;100.00;60650.00;5084412;28;20069;-74
2023/07/21 06:10:11;;;;;;;8.73;3.17;;;;;;;-141.20;100.00;60650.00;5054134;28;20394;-74
2023/07/21 06:12:41;;;;;;;3.25;2.67;;;;;;;-141.20;100.00;60650.00;5037293;28;20035;-74
2023/07/21 06:15:14;;;;;;;4.93;2.72;;;;;;;-141.20;100.00;60650.00;5068295;28;20394;-74
2023/07/21 06:18:03;;;;;;;3.10;2.80;;;;;;;-141.20;100.00;60650.00;5093691;28;20089;-73
2023/07/21 06:20:29;;;;;;;4.00;2.80;;;;;;;-141.20;100.00;60650.00;5075605;28;20032;-72
2023/07/21 06:22:56;;;;;;;2.65;2.45;;;;;;;-141.20;100.00;60650.00;5074046;28;20024;-70
2023/07/21 06:25:26;;;;;;;3.97;3.03;;;;;;;-141.20;100.00;60650.00;5075647;28;20119;-71
2023/07/21 06:27:59;;;;;;;3.60;2.70;;;;;;;-141.20;100.00;60650.00;5057135;28;20483;-70
2023/07/21 06:30:24;;;;;;;5.35;2.85;;;;;;;-141.20;100.00;60650.00;5072828;28;20075;-69
2023/07/21 06:32:51;;;;;;;5.18;2.80;;;;;;;-141.20;100.00;60650.00;5068171;28;20016;-75
2023/07/21 06:35:35;;;;;;;3.65;2.72;;;;;;;-141.20;100.00;60650.00;5074726;28;20115;-74
2023/07/21 06:38:19;;;;;;;3.15;2.83;;;;;;;-141.20;100.00;60650.00;5078023;28;20055;-74
2023/07/21 06:41:07;;;;;;;3.65;3.08;;;;;;;-141.20;100.00;60650.00;5091082;28;20036;-73
2023/07/21 06:43:45;;;;;;;3.53;2.80;;;;;;;-141.20;100.00;60650.00;5067991;28;20077;-74
2023/07/21 06:46:20;;;;;;;3.53;2.93;;;;;;;-141.20;100.00;60650.00;5079571;28;20028;-74
2023/07/21 06:49:14;;;;;;;4.40;3.10;;;;;;;-141.20;100.00;60650.00;5075354;28;20055;-75
2023/07/21 06:52:03;;;;;;;;;;;;;;;-141.20;100.00;60650.00;5073196;28;20039;-75
2023/07/21 06:54:30;;;;;;;5.30;3.10;;;;;;;-141.20;100.00;60650.00;5085812;28;19912;-75
2023/07/21 06:56:57;;;;;;;3.13;2.80;;;;;;;-141.20;100.00;60650.00;5084679;28;20030;-75
2023/07/21 06:59:22;;;;;;;4.28;2.92;;;;;;;-141.20;100.00;60650.00;5052944;28;20043;-74
2023/07/21 07:01:48;;;;;;;3.13;2.78;;;;;;;-141.20;100.00;60650.00;5067593;28;20024;-74
2023/07/21 07:04:13;;;;;;;3.25;2.95;;;;;;;-141.20;100.00;60650.00;5073726;28;20028;-74
2023/07/21 07:06:41;;;;;;;4.18;3.15;;;;;;;-141.20;100.00;60650.00;5052356;28;20056;-74
2023/07/21 07:09:07;;;;;;;5.00;2.38;;;;;;;-141.20;100.00;60650.00;5070498;28;20036;-75
2023/07/21 07:11:33;;;;;;;4.75;2.88;;;;;;;-141.20;100.00;60650.00;5064978;28;20016;-74
2023/07/21 07:13:59;;;;;;;3.92;3.17;;;;;;;-141.20;100.00;60650.00;5086954;28;20051;-74
2023/07/21 07:16:24;;;;;;;4.10;2.97;;;;;;;-141.20;100.00;60650.00;5050908;28;20024;-74
2023/07/21 07:18:49;;;;;;;3.33;2.50;;;;;;;-141.20;100.00;60650.00;5073504;28;20067;-75
2023/07/21 07:21:15;;;;;;;5.07;3.30;;;;;;;-141.20;100.00;60650.00;5067180;28;20385;-74
2023/07/21 07:23:40;;;;;;;7.80;3.38;;;;;;;-141.20;100.00;60650.00;5073667;28;20044;-75
2023/07/21 07:26:06;;;;;;;3.42;3.13;;;;;;;-141.20;100.00;60650.00;5083340;28;20035;-74
2023/07/21 07:28:32;;;;;;;5.25;3.45;;;;;;;-141.20;100.00;60650.00;5070453;28;20398;-74
2023/07/21 07:31:02;;;;;;;5.28;3.15;;;;;;;-141.20;100.00;60650.00;5083659;28;20032;-74
2023/07/21 07:33:28;;;;;;;4.25;3.40;;;;;;;-141.20;100.00;60650.00;5078302;28;20474;-75
2023/07/21 07:35:53;;;;;;;4.53;3.30;;;;;;;-141.20;100.00;60650.00;5072092;28;20078;-75
2023/07/21 07:38:23;;;;;;;4.63;3.55;;;;;;;-141.20;100.00;60650.00;5086822;28;20055;-76
2023/07/21 08:10:19;;;;;;;0.00;0.00;;;;;;;37.51;24.62;97595.72;5103371;27;20788;-62
2023/07/21 08:12:44;;;;;;;0.00;0.00;;;;;;;37.83;23.89;97607.03;5095517;28;20032;-50
2023/07/21 08:18:23;;;;;;;0.30;0.30;;;;;;;25.86;41.12;97628.19;5088376;28;20405;-60
2023/07/21 08:20:50;;;;;;;0.73;0.43;;;;;;;25.56;42.49;97621.53;5087793;28;20028;-58
2023/07/21 08:23:15;;;;;;;4.03;0.80;;;;;;;25.26;43.13;97618.38;5087095;28;20028;-52
2023/07/21 08:25:41;;;;;;;4.07;1.45;;;;;;;25.09;43.77;97621.44;5068547;28;20043;-53
2023/07/21 08:28:07;;;;;;;12.27;11.38;;;;;;;25.03;44.07;97620.09;5068374;28;20095;-54
2023/07/21 08:30:33;;;;;;;2.65;1.90;;;;;;;24.97;44.23;97619.56;5068511;28;20111;-56
2023/07/21 08:32:59;;;;;;;3.28;2.40;;;;;;;24.91;44.12;97625.66;5080159;28;20107;-53
2023/07/21 08:35:25;;;;;;;4.03;2.13;;;;;;;24.86;43.80;97620.41;5087164;28;20131;-54
2023/07/21 08:37:50;;;;;;;4.25;2.40;;;;;;;24.87;44.00;97619.28;5088148;28;20024;-56
2023/07/21 08:40:16;;;;;;;3.65;2.42;;;;;;;24.80;44.11;97627.34;5088079;28;20032;-55
2023/07/21 08:42:42;;;;;;;3.30;2.28;;;;;;;24.85;43.56;97629.84;5088147;28;20107;-55
2023/07/21 08:45:08;;;;;;;4.07;1.90;;;;;;;24.81;44.17;97634.47;5088380;28;20036;-56
2023/07/21 08:47:35;;;;;;;3.05;2.20;;;;;;;24.78;44.50;97629.63;5088314;28;20044;-53
2023/07/21 08:50:04;;;;;;;3.10;2.28;;;;;;;24.81;43.75;97626.19;5088177;28;20040;-52
2023/07/21 08:52:29;;;;;;;3.63;2.00;;;;;;;24.80;44.33;97627.34;5088077;28;20054;-54
2023/07/21 08:54:54;;;;;;;4.97;3.53;;;;;;;24.78;44.00;97624.94;5087874;28;20048;-52
2023/07/21 08:57:20;;;;;;;4.95;2.30;;;;;;;24.77;44.61;97630.78;5088053;28;20030;-53
2023/07/21 08:59:45;;;;;;;4.43;2.38;;;;;;;24.76;44.06;97632.75;5086660;28;20064;-52
2023/07/21 09:02:11;;;;;;;4.85;2.30;;;;;;;24.78;44.19;97632.41;5087846;28;20037;-52
2023/07/21 09:04:36;;;;;;;6.63;2.72;;;;;;;24.82;43.92;97641.56;5087679;28;20108;-54
2023/07/21 09:07:03;;;;;;;4.15;2.40;;;;;;;24.78;44.33;97646.16;5087678;28;20455;-55
2023/07/21 09:09:29;;;;;;;3.55;2.20;;;;;;;24.72;44.45;97643.63;5087583;28;20032;-53
2023/07/21 09:12:03;;;;;;;4.60;1.98;;;;;;;24.77;44.08;97644.56;5086524;28;20088;-52
2023/07/21 09:18:18;;;;;;;0.17;0.17;;;;;;;21.42;51.87;97636.06;5108833;27;20335;-71
2023/07/21 09:20:47;;;;;;;0.10;0.10;;;;;;;20.76;53.62;97636.66;5107748;28;20108;-71
2023/07/21 09:23:13;;;;;;;0.10;0.10;;;;;;;21.50;52.24;97640.69;5106325;28;20039;-71
2023/07/21 09:25:48;;;;;;;0.10;0.10;;;;;;;20.65;52.83;97628.00;5088475;28;20039;-72
2023/07/21 09:28:13;;;;;;;0.10;0.10;;;;;;;21.43;51.66;97645.88;5069198;28;20037;-72
2023/07/21 09:30:49;;;;;;;0.10;0.10;;;;;;;20.45;54.88;97640.38;5088515;28;20031;-72
2023/07/21 09:33:15;;;;;;;0.10;0.10;;;;;;;20.19;55.74;97635.97;5087002;28;20034;-72
2023/07/21 09:35:40;;;;;;;0.10;0.10;;;;;;;20.70;54.78;97627.81;5086986;28;20020;-72
2023/07/21 09:38:11;;;;;;;0.10;0.10;;;;;;;21.03;53.86;97636.28;5087434;28;20066;-70
2023/07/21 09:40:40;;;;;;;0.10;0.10;;;;;;;20.99;54.43;97640.81;5066790;28;20487;-71
2023/07/21 09:43:07;;;;;;;5.22;3.80;;;;;;;20.65;54.71;97637.00;5081411;28;20032;-71
2023/07/21 09:45:33;;;;;;;7.20;4.50;;;;;;;21.07;53.83;97643.59;5065641;28;20058;-72
2023/07/21 09:47:59;;;;;;;5.68;3.80;;;;;;;21.34;53.44;97636.91;5065653;28;20036;-72
2023/07/21 09:50:24;;;;;;;3.97;3.55;;;;;;;21.89;52.18;97643.13;5084863;28;20028;-71
2023/07/21 09:52:50;;;;;;;5.25;3.88;;;;;;;20.26;56.72;97659.03;5066276;28;20564;-71
2023/07/21 09:55:16;;;;;;;6.47;4.03;;;;;;;19.66;58.52;97664.31;5077966;28;20504;-71
2023/07/21 09:57:46;;;;;;;4.45;3.90;;;;;;;19.91;57.90;97654.59;5086392;28;20135;-72
2023/07/21 10:00:14;;;;;;;6.18;3.75;;;;;;;20.39;56.62;97649.88;5086065;28;20032;-72
2023/07/21 10:02:42;;;;;;;4.18;3.78;;;;;;;20.01;57.16;97648.81;5080807;28;20035;-72
2023/07/21 10:05:10;;;;;;;4.75;3.53;;;;;;;20.66;55.78;97655.03;5086549;28;20035;-72
2023/07/21 10:07:38;;;;;;;6.13;4.15;;;;;;;20.70;55.69;97646.19;5084604;28;20081;-69
2023/07/21 10:10:05;;;;;;;4.60;3.88;;;;;;;20.06;56.76;97656.06;5083420;28;20028;-71
2023/07/21 10:13:03;;;;;;;6.53;3.97;;;;;;;20.25;56.98;97665.63;5086026;28;20040;-70
2023/07/21 10:15:30;;;;;;;4.80;4.07;;;;;;;20.26;56.63;97656.28;5075433;28;20120;-72
2023/07/21 10:18:00;;;;;;;4.60;4.10;;;;;;;20.95;55.40;97657.09;5086093;28;20544;-71
2023/07/21 10:20:43;;;;;;;6.13;3.90;;;;;;;20.60;56.28;97655.53;5087387;28;20035;-70
2023/07/21 10:23:11;;;;;;;4.45;3.92;;;;;;;20.40;55.88;97651.47;5085826;28;20064;-72
2023/07/21 10:25:51;;;;;;;6.88;4.70;;;;;;;21.16;54.24;97651.78;5065804;28;20070;-71
2023/07/21 10:28:33;;;;;;;6.28;4.60;;;;;;;21.08;53.56;97644.38;5063281;28;20062;-72
2023/07/21 10:31:20;;;;;;;4.38;3.60;;;;;;;21.19;54.17;97640.19;5068686;28;20028;-72
2023/07/21 10:34:03;;;;;;;5.72;4.45;;;;;;;21.37;52.36;97646.41;5068636;28;20028;-72
2023/07/21 10:36:53;;;;;;;5.85;3.70;;;;;;;21.14;52.63;97648.56;5052263;28;20119;-70
2023/07/21 10:39:21;;;;;;;5.55;3.80;;;;;;;21.24;51.79;97645.47;5067965;28;20127;-71
2023/07/21 10:41:48;;;;;;;6.88;3.90;;;;;;;20.99;53.37;97629.88;5046952;28;20021;-69
2023/07/21 10:44:14;;;;;;;8.73;4.38;;;;;;;20.73;53.36;97635.38;5070656;28;20137;-73
2023/07/21 10:46:41;;;;;;;5.45;4.13;;;;;;;21.06;53.35;97635.69;5075108;28;20058;-74
2023/07/21 10:49:09;;;;;;;5.40;3.90;;;;;;;21.63;50.96;97628.75;5064337;28;20028;-75
2023/07/21 10:51:34;;;;;;;4.57;4.10;;;;;;;21.15;51.86;97628.25;5071555;28;20023;-75
2023/07/21 10:54:00;;;;;;;5.35;3.85;;;;;;;21.55;51.15;97628.75;5071506;28;20040;-73
2023/07/21 10:56:25;;;;;;;4.85;3.78;;;;;;;22.12;49.35;97624.47;5075454;28;20024;-74
2023/07/21 10:58:52;;;;;;;5.45;4.10;;;;;;;22.16;48.10;97624.59;5062403;28;20034;-74
2023/07/21 11:01:21;;;;;;;4.88;3.72;;;;;;;22.21;49.39;97630.69;5064785;28;20025;-73
2023/07/21 11:03:48;;;;;;;5.10;3.60;;;;;;;22.16;48.89;97630.06;5079843;28;20475;-73
2023/07/21 11:06:14;;;;;;;5.55;3.63;;;;;;;21.91;50.04;97635.38;5055517;28;20048;-74
2023/07/21 11:08:39;;;;;;;5.40;3.53;;;;;;;22.30;48.21;97620.44;5072210;28;20394;-75
2023/07/21 11:11:05;;;;;;;5.10;3.63;;;;;;;21.73;48.62;97622.88;5070302;28;20022;-74
2023/07/21 11:13:30;;;;;;;5.93;3.55;;;;;;;21.96;47.75;97615.22;5066735;28;20066;-74
2023/07/21 11:15:56;;;;;;;3.78;3.20;;;;;;;21.68;48.94;97614.81;5054922;28;20482;-74
2023/07/21 11:18:22;;;;;;;6.30;3.45;;;;;;;22.14;49.74;97611.22;5084103;28;20036;-73
2023/07/21 11:20:51;;;;;;;7.00;3.85;;;;;;;22.57;47.25;97610.84;5078518;28;20080;-74
2023/07/21 11:23:17;;;;;;;6.65;3.58;;;;;;;22.13;48.67;97609.59;5055638;28;20494;-73
2023/07/21 11:26:11;;;;;;;8.75;4.13;;;;;;;22.32;47.22;97607.19;5079705;28;20024;-74
2023/07/21 11:28:41;;;;;;;7.15;3.28;;;;;;;22.94;46.53;97604.38;5072601;28;20111;-73
2023/07/21 11:31:12;;;;;;;5.00;3.22;;;;;;;22.88;45.08;97599.47;5079402;28;20032;-73
2023/07/21 11:33:45;;;;;;;4.95;3.17;;;;;;;23.93;43.51;97610.50;5085153;28;20475;-73
2023/07/21 11:36:16;;;;;;;4.88;3.08;;;;;;;23.34;44.43;97602.69;5084904;28;20043;-73
2023/07/21 11:38:42;;;;;;;3.33;2.90;;;;;;;22.71;42.67;97614.16;5079105;28;20040;-73
2023/07/21 11:41:07;;;;;;;4.63;2.88;;;;;;;23.49;42.55;97608.66;5077059;28;20146;-73
2023/07/21 11:43:59;;;;;;;5.70;3.53;;;;;;;23.91;43.81;97607.28;5084820;28;20483;-73
2023/07/21 11:46:25;;;;;;;4.68;3.45;;;;;;;24.93;41.16;97593.06;5064370;28;20094;-73
2023/07/21 11:48:54;;;;;;;5.35;3.00;;;;;;;26.41;39.44;97585.72;5056949;28;20447;-73
2023/07/21 11:51:22;;;;;;;3.95;3.00;;;;;;;26.45;38.96;97587.38;5077925;28;20460;-73
2023/07/21 11:53:48;;;;;;;6.28;3.28;;;;;;;24.95;41.12;97601.78;5078867;28;20020;-74
2023/07/21 11:56:15;;;;;;;2.72;2.53;;;;;;;23.44;41.72;97593.19;5083389;28;20090;-74
2023/07/21 11:58:43;;;;;;;5.25;3.10;;;;;;;23.63;41.67;97595.38;5082638;28;20067;-73
2023/07/21 12:01:09;;;;;;;3.47;2.70;;;;;;;23.57;41.29;97591.28;5078806;28;20043;-74